Time;durP1;ratioP1;P1;durP2;ratioP2;P2;SDS_P1;SDS_P2;PMS_P1;PMS_P2;Temp;Humidity;BMP_temperature;BMP_pressure;BME280_temperature;BME280_humidity;BME280_pressure;Samples;Min_cycle;Max_cycle;Signal;HPM_P1;HPM_P2
2022/08/03 00:01:29;;;;;;;3.60;3.30;;;;;;;19.36;100.00;100593.22;7700273;23;20024;-89
2022/08/03 00:04:31;;;;;;;5.15;3.05;;;;;;;19.31;100.00;100592.94;7701062;23;20031;-89
2022/08/03 00:07:34;;;;;;;4.28;3.72;;;;;;;19.29;100.00;100591.47;7673818;23;20024;-89
2022/08/03 00:10:37;;;;;;;3.88;3.47;;;;;;;19.26;100.00;100592.66;7674240;23;20027;-89
2022/08/03 00:13:39;;;;;;;3.60;3.30;;;;;;;19.22;100.00;100591.34;7674688;23;20108;-89
2022/08/03 00:16:40;;;;;;;4.53;3.50;;;;;;;19.19;100.00;100583.84;7673947;23;20100;-89
2022/08/03 00:19:42;;;;;;;4.75;3.67;;;;;;;19.17;100.00;100582.38;7698804;23;20477;-89
2022/08/03 00:22:44;;;;;;;5.85;3.33;;;;;;;19.13;100.00;100582.75;7673851;23;20017;-89
2022/08/03 00:25:46;;;;;;;3.63;3.05;;;;;;;19.10;100.00;100583.06;7674263;23;20043;-89
2022/08/03 00:28:49;;;;;;;4.03;3.28;;;;;;;19.07;100.00;100587.88;7700641;23;20238;-89
2022/08/03 00:31:51;;;;;;;3.53;3.22;;;;;;;19.06;100.00;100584.44;7700591;23;20732;-89
2022/08/03 00:35:00;;;;;;;3.85;3.45;;;;;;;19.05;100.00;100585.41;7700176;23;20025;-89
2022/08/03 00:38:09;;;;;;;4.30;3.90;;;;;;;19.03;100.00;100581.31;7676122;23;20274;-89
2022/08/03 00:41:11;;;;;;;4.53;3.80;;;;;;;19.00;100.00;100572.00;7700331;23;20024;-89
2022/08/03 00:44:16;;;;;;;4.53;3.80;;;;;;;19.01;100.00;100578.91;7700421;23;20037;-89
2022/08/03 00:47:18;;;;;;;3.80;3.50;;;;;;;19.01;100.00;100578.09;7699467;23;20075;-89
2022/08/03 00:50:22;;;;;;;4.20;3.47;;;;;;;18.99;100.00;100582.69;7699667;23;20020;-89
2022/08/03 00:53:24;;;;;;;5.30;3.90;;;;;;;18.97;100.00;100582.84;7700485;23;20020;-89
2022/08/03 00:56:26;;;;;;;6.18;3.80;;;;;;;18.93;100.00;100579.78;7673613;23;20095;-89
2022/08/03 00:59:29;;;;;;;4.03;3.63;;;;;;;18.88;100.00;100576.84;7697642;23;20103;-89
2022/08/03 01:02:32;;;;;;;4.63;3.60;;;;;;;18.84;100.00;100569.50;7646948;23;20029;-89
2022/08/03 01:06:03;;;;;;;3.58;3.28;;;;;;;18.83;100.00;100565.22;7699481;23;20020;-89
2022/08/03 01:09:25;;;;;;;3.85;3.40;;;;;;;18.84;100.00;100572.13;7701004;23;20110;-89
2022/08/03 01:12:46;;;;;;;5.00;3.88;;;;;;;18.82;100.00;100574.91;7700556;23;20432;-89
2022/08/03 01:16:25;;;;;;;5.40;3.65;;;;;;;18.80;100.00;100576.06;7699194;23;20458;-89
2022/08/03 01:19:43;;;;;;;3.97;3.67;;;;;;;18.76;100.00;100573.00;7700148;23;20474;-89
2022/08/03 01:22:51;;;;;;;4.07;3.55;;;;;;;18.74;100.00;100564.44;7647981;23;20039;-89
2022/08/03 01:26:35;;;;;;;4.15;3.72;;;;;;;18.70;100.00;100569.22;7700324;23;20336;-89
2022/08/03 01:29:46;;;;;;;4.22;3.83;;;;;;;18.68;100.00;100565.13;7700461;23;20020;-89
2022/08/03 01:33:14;;;;;;;3.88;3.55;;;;;;;18.65;100.00;100568.91;7699998;23;20042;-89
2022/08/03 01:36:23;;;;;;;3.92;3.63;;;;;;;18.63;100.00;100563.06;7672742;23;20621;-89
2022/08/03 01:39:28;;;;;;;4.80;4.30;;;;;;;18.61;100.00;100567.66;7673168;23;20020;-89
2022/08/03 01:42:32;;;;;;;5.53;3.97;;;;;;;18.59;100.00;100566.19;7648763;23;20043;-89
2022/08/03 01:45:35;;;;;;;3.88;3.30;;;;;;;18.55;100.00;100562.25;7699702;23;20527;-89
2022/08/03 01:48:41;;;;;;;4.05;3.75;;;;;;;18.50;100.00;100565.41;7699402;23;20027;-89
2022/08/03 01:51:46;;;;;;;4.50;3.67;;;;;;;18.46;100.00;100564.13;7699568;23;20276;-89
2022/08/03 01:55:07;;;;;;;4.22;3.70;;;;;;;18.43;100.00;100561.81;7698985;23;20091;-89
2022/08/03 01:58:11;;;;;;;4.18;3.88;;;;;;;18.42;100.00;100562.81;7700069;23;20487;-89
2022/08/03 02:01:17;;;;;;;5.05;3.90;;;;;;;18.41;100.00;100569.03;7700049;23;20462;-89
2022/08/03 02:04:21;;;;;;;4.57;3.53;;;;;;;18.36;100.00;100558.25;7697502;23;20485;-89
2022/08/03 02:07:25;;;;;;;4.00;3.60;;;;;;;18.34;100.00;100560.25;7701786;23;20023;-89
2022/08/03 02:10:28;;;;;;;4.18;3.78;;;;;;;18.29;100.00;100560.75;7702178;23;20096;-89
2022/08/03 02:13:38;;;;;;;5.00;3.65;;;;;;;18.25;100.00;100562.88;7676456;23;20103;-89
2022/08/03 02:16:42;;;;;;;5.65;3.83;;;;;;;18.21;100.00;100559.00;7700019;23;20032;-89
2022/08/03 02:19:45;;;;;;;5.38;3.80;;;;;;;18.21;100.00;100561.63;7701887;23;20338;-89
2022/08/03 02:22:47;;;;;;;4.00;3.70;;;;;;;18.17;100.00;100555.06;7702402;23;20332;-89
2022/08/03 02:25:59;;;;;;;4.20;3.80;;;;;;;18.16;100.00;100558.69;7674376;23;20044;-89
2022/08/03 02:29:08;;;;;;;7.57;3.65;;;;;;;18.17;100.00;100555.06;7700371;23;20047;-89
2022/08/03 02:32:19;;;;;;;4.38;3.97;;;;;;;18.17;100.00;100549.03;7696876;23;20080;-89
2022/08/03 02:35:24;;;;;;;4.03;3.53;;;;;;;18.19;100.00;100544.44;7700881;23;20036;-89
2022/08/03 02:38:31;;;;;;;4.07;3.67;;;;;;;18.19;100.00;100549.69;7675648;23;20016;-89
2022/08/03 02:41:42;;;;;;;4.20;3.50;;;;;;;18.15;100.00;100545.75;7673452;23;20028;-89
2022/08/03 02:44:48;;;;;;;5.07;3.72;;;;;;;18.13;100.00;100547.72;7700566;23;20020;-89
2022/08/03 02:47:54;;;;;;;4.20;3.67;;;;;;;18.10;100.00;100546.25;7670580;23;20186;-89
2022/08/03 02:50:57;;;;;;;5.13;4.10;;;;;;;18.05;100.00;100541.53;7674407;23;20470;-89
2022/08/03 02:54:03;;;;;;;4.00;3.60;;;;;;;18.01;100.00;100537.63;7700379;23;20016;-89
2022/08/03 02:57:08;;;;;;;6.35;4.28;;;;;;;17.98;100.00;100537.94;7699820;23;20056;-89
2022/08/03 03:00:11;;;;;;;5.30;3.75;;;;;;;17.97;100.00;100536.31;7672694;23;20399;-89
2022/08/03 03:03:21;;;;;;;4.78;3.60;;;;;;;17.95;100.00;100537.47;7675494;23;20016;-89
2022/08/03 03:06:27;;;;;;;4.45;3.72;;;;;;;17.93;100.00;100542.88;7675182;23;20023;-89
2022/08/03 03:09:32;;;;;;;4.43;3.53;;;;;;;17.91;100.00;100544.84;7702005;23;20036;-88
2022/08/03 03:12:45;;;;;;;3.65;3.35;;;;;;;17.92;100.00;100540.44;7699941;23;20394;-89
2022/08/03 03:15:48;;;;;;;5.60;3.90;;;;;;;17.91;100.00;100544.03;7699172;23;20027;-89
2022/08/03 03:18:50;;;;;;;5.13;3.78;;;;;;;17.89;100.00;100548.63;7675707;23;20012;-89
2022/08/03 03:21:54;;;;;;;4.25;3.85;;;;;;;17.90;100.00;100548.44;7649338;23;20359;-89
2022/08/03 03:24:56;;;;;;;5.95;3.70;;;;;;;17.86;100.00;100537.50;7700585;23;20030;-89
2022/08/03 03:28:00;;;;;;;4.40;4.00;;;;;;;17.85;100.00;100535.06;7700390;23;20575;-89
2022/08/03 03:31:04;;;;;;;4.32;3.92;;;;;;;17.83;100.00;100543.06;7701469;23;20067;-89
2022/08/03 03:34:07;;;;;;;5.50;3.65;;;;;;;17.81;100.00;100542.44;7674444;23;20020;-89
2022/08/03 03:37:09;;;;;;;4.65;3.80;;;;;;;17.79;100.00;100547.00;7648999;23;20036;-89
2022/08/03 03:40:11;;;;;;;4.45;4.05;;;;;;;17.79;100.00;100551.41;7700871;23;20083;-89
2022/08/03 03:43:12;;;;;;;4.63;4.10;;;;;;;17.79;100.00;100547.00;7701699;23;20351;-89
2022/08/03 03:46:14;;;;;;;5.40;4.18;;;;;;;17.81;100.00;100545.06;7701218;23;20390;-89
2022/08/03 03:49:16;;;;;;;4.57;4.00;;;;;;;17.82;100.00;100544.06;7701241;23;20021;-89
2022/08/03 03:52:18;;;;;;;5.32;3.65;;;;;;;17.80;100.00;100538.16;7673432;23;20718;-89
2022/08/03 03:55:20;;;;;;;4.28;3.88;;;;;;;17.81;100.00;100537.19;7700876;23;20439;-89
2022/08/03 03:58:22;;;;;;;4.25;3.83;;;;;;;17.81;100.00;100537.19;7701042;23;20047;-89
2022/08/03 04:01:25;;;;;;;7.35;4.10;;;;;;;17.83;100.00;100537.00;7701753;23;20439;-89
2022/08/03 04:11:28;;;;;;;5.15;4.20;;;;;;;17.91;100.00;100544.03;7674538;23;20028;-89
2022/08/03 04:14:34;;;;;;;4.25;3.88;;;;;;;17.89;100.00;100543.38;7701528;23;20039;-89
2022/08/03 04:17:37;;;;;;;5.35;3.90;;;;;;;17.90;100.00;100545.84;7675860;23;20039;-89
2022/08/03 04:20:44;;;;;;;4.10;3.55;;;;;;;17.92;100.00;100546.50;7702477;23;20027;-89
2022/08/03 04:23:51;;;;;;;4.35;4.03;;;;;;;17.93;100.00;100545.50;7677160;23;20321;-89
2022/08/03 04:26:56;;;;;;;5.10;4.00;;;;;;;17.94;100.00;100555.00;7703071;23;20556;-89
2022/08/03 04:30:01;;;;;;;4.85;4.07;;;;;;;17.99;100.00;100559.75;7652031;23;20092;-89
2022/08/03 04:33:04;;;;;;;4.10;3.45;;;;;;;18.00;100.00;100569.22;7702911;23;20492;-89
2022/08/03 04:36:08;;;;;;;5.22;3.60;;;;;;;18.04;100.00;100560.03;7675990;23;20048;-89
2022/08/03 04:39:17;;;;;;;3.78;3.22;;;;;;;18.10;100.00;100569.84;7702601;23;20170;-89
2022/08/03 04:42:21;;;;;;;4.30;3.90;;;;;;;18.12;100.00;100565.25;7703088;23;20347;-90
2022/08/03 04:45:23;;;;;;;5.43;3.58;;;;;;;18.15;100.00;100564.91;7702548;23;20044;-89
2022/08/03 04:48:26;;;;;;;4.15;3.75;;;;;;;18.19;100.00;100570.63;7702969;23;20443;-89
2022/08/03 04:51:29;;;;;;;3.50;3.20;;;;;;;18.24;100.00;100570.94;7702565;23;20451;-89
2022/08/03 04:54:38;;;;;;;3.85;3.50;;;;;;;18.26;100.00;100580.25;7703333;23;20027;-89
2022/08/03 04:57:40;;;;;;;4.73;4.20;;;;;;;18.29;100.00;100574.69;7702989;23;20020;-89
2022/08/03 05:00:42;;;;;;;5.40;4.05;;;;;;;18.35;100.00;100573.16;7702776;23;20453;-90
2022/08/03 05:03:44;;;;;;;3.97;3.67;;;;;;;18.38;100.00;100578.06;7702869;23;20112;-89
2022/08/03 05:06:45;;;;;;;5.10;3.88;;;;;;;18.39;100.00;100577.09;7702679;23;20016;-89
2022/08/03 05:09:54;;;;;;;4.32;3.70;;;;;;;18.42;100.00;100581.97;7703652;23;20027;-89
2022/08/03 05:13:03;;;;;;;4.68;3.67;;;;;;;18.46;100.00;100575.44;7703273;23;20017;-89
2022/08/03 05:16:06;;;;;;;4.30;3.60;;;;;;;18.48;100.00;100567.38;7674601;23;20032;-89
2022/08/03 05:19:07;;;;;;;4.28;3.08;;;;;;;18.54;100.00;100565.88;7702405;23;20020;-89
2022/08/03 05:22:09;;;;;;;3.97;3.65;;;;;;;18.58;100.00;100573.22;7701874;23;20022;-90
2022/08/03 05:25:11;;;;;;;4.47;3.55;;;;;;;18.62;100.00;100571.06;7702622;23;20028;-90
2022/08/03 05:28:20;;;;;;;3.92;3.63;;;;;;;18.65;100.00;100568.91;7702478;23;20439;-89
2022/08/03 05:31:22;;;;;;;3.95;3.55;;;;;;;18.69;100.00;100574.66;7702645;23;20027;-89
2022/08/03 05:34:24;;;;;;;3.78;3.47;;;;;;;18.73;100.00;100568.88;7702778;23;20347;-89
2022/08/03 05:37:26;;;;;;;7.47;3.80;;;;;;;18.79;100.00;100569.22;7702952;23;20024;-89
2022/08/03 05:40:28;;;;;;;4.88;3.83;;;;;;;18.85;100.00;100571.94;7701418;23;20021;-89
2022/08/03 05:43:30;;;;;;;5.55;3.88;;;;;;;18.92;100.00;100566.81;7674238;23;20440;-90
2022/08/03 05:46:32;;;;;;;3.75;3.42;;;;;;;18.99;100.00;100566.94;7702679;23;20440;-89
2022/08/03 05:49:34;;;;;;;9.65;3.60;;;;;;;19.06;100.00;100566.06;7675965;23;20025;-89
2022/08/03 05:52:37;;;;;;;2.97;2.75;;;;;;;19.17;100.00;100561.38;7701181;23;20028;-90
2022/08/03 05:55:39;;;;;;;6.45;3.60;;;;;;;19.27;100.00;100567.22;7701724;23;20352;-89
2022/08/03 05:58:43;;;;;;;4.10;3.33;;;;;;;19.36;100.00;100566.97;7701443;23;20084;-89
2022/08/03 06:01:45;;;;;;;7.35;3.65;;;;;;;19.46;100.00;100571.97;7702800;23;20021;-89
2022/08/03 06:04:47;;;;;;;4.97;3.58;;;;;;;19.55;100.00;100562.19;7702545;23;20104;-89
2022/08/03 06:07:50;;;;;;;4.90;3.20;;;;;;;19.66;100.00;100567.00;7702447;23;20021;-89
2022/08/03 06:10:51;;;;;;;3.55;2.85;;;;;;;19.75;100.00;100562.50;7700867;23;20023;-90
2022/08/03 06:13:53;;;;;;;8.63;3.40;;;;;;;19.83;100.00;100566.88;7701436;23;20356;-90
2022/08/03 06:16:55;;;;;;;3.50;3.17;;;;;;;19.93;100.00;100562.19;7702722;23;20027;-89
2022/08/03 06:19:57;;;;;;;4.53;3.50;;;;;;;20.05;100.00;100567.75;7702339;23;20020;-89
2022/08/03 06:22:59;;;;;;;4.53;3.53;;;;;;;20.18;100.00;100566.13;7702542;23;20017;-90
2022/08/03 06:26:02;;;;;;;3.70;3.20;;;;;;;20.32;100.00;100571.53;7675584;23;20029;-89
2022/08/03 06:29:04;;;;;;;4.50;3.40;;;;;;;20.47;100.00;100567.09;7701823;23;20027;-89
2022/08/03 06:32:09;;;;;;;3.38;3.08;;;;;;;20.72;100.00;100574.66;7702739;23;20107;-90
2022/08/03 06:35:11;;;;;;;4.70;2.97;;;;;;;20.94;100.00;100575.47;7702519;23;20020;-90
2022/08/03 06:38:12;;;;;;;3.15;2.70;;;;;;;21.12;100.00;100570.63;7702985;23;20024;-90
2022/08/03 06:41:14;;;;;;;4.82;3.03;;;;;;;21.30;100.00;100576.22;7701688;23;20390;-89
2022/08/03 06:44:16;;;;;;;3.53;2.95;;;;;;;21.47;100.00;100574.16;7674944;23;20020;-90
2022/08/03 06:47:18;;;;;;;4.88;2.75;;;;;;;21.64;100.00;100584.38;7674274;23;20785;-90
2022/08/03 06:50:20;;;;;;;3.70;2.58;;;;;;;21.77;94.26;100587.13;7702141;23;20033;-90
2022/08/03 06:53:26;;;;;;;4.18;2.80;;;;;;;21.93;93.38;100591.25;7678186;23;20083;-89
2022/08/03 06:56:28;;;;;;;2.70;2.50;;;;;;;22.04;90.67;100588.09;7704584;23;20574;-90
2022/08/03 06:59:30;;;;;;;3.80;2.60;;;;;;;22.14;88.62;100587.75;7677771;23;20028;-89
2022/08/03 07:02:52;;;;;;;4.50;2.40;;;;;;;22.23;86.64;100591.84;7704138;23;20027;-90
2022/08/03 07:06:01;;;;;;;3.03;2.15;;;;;;;22.31;86.50;100586.44;7704983;23;20384;-90
2022/08/03 07:09:04;;;;;;;5.10;2.28;;;;;;;22.42;84.12;100582.41;7704216;23;20048;-90
2022/08/03 07:12:06;;;;;;;3.55;2.58;;;;;;;22.58;84.25;100597.91;7677367;23;20103;-90
2022/08/03 07:15:08;;;;;;;3.28;2.45;;;;;;;22.70;83.09;100594.66;7703838;23;20071;-90
2022/08/03 07:18:30;;;;;;;4.93;2.50;;;;;;;22.82;81.70;100590.44;7703848;23;20356;-90
2022/08/03 07:21:32;;;;;;;5.10;2.17;;;;;;;22.94;79.09;100601.22;7677474;23;20020;-90
2022/08/03 07:24:34;;;;;;;3.15;2.22;;;;;;;23.03;79.05;100596.56;7704469;23;20021;-89
2022/08/03 07:27:37;;;;;;;3.15;2.35;;;;;;;23.17;79.78;100604.31;7703682;23;20020;-89
2022/08/03 07:30:38;;;;;;;4.30;3.05;;;;;;;23.24;77.60;100600.88;7703809;23;20027;-89
2022/08/03 07:33:40;;;;;;;3.05;2.15;;;;;;;23.41;77.28;100599.44;7676468;23;20016;-89
2022/08/03 07:36:42;;;;;;;2.75;2.10;;;;;;;23.52;75.59;100604.09;7651504;23;20090;-89
2022/08/03 07:39:44;;;;;;;5.15;3.22;;;;;;;23.59;75.89;100593.53;7703184;23;20395;-89
2022/08/03 07:42:46;;;;;;;3.35;2.70;;;;;;;23.73;76.28;100604.94;7702538;23;20021;-89
2022/08/03 07:45:53;;;;;;;5.78;1.92;;;;;;;23.90;75.28;100614.06;7703999;23;20047;-89
2022/08/03 07:48:55;;;;;;;3.53;2.20;;;;;;;24.12;74.94;100605.84;7703771;23;20137;-89
2022/08/03 07:55:20;;;;;;;2.97;2.03;;;;;;;24.28;72.26;100603.56;7704497;23;20027;-89
2022/08/03 07:58:23;;;;;;;5.13;1.90;;;;;;;24.29;72.82;100599.88;7676758;23;20026;-89
2022/08/03 08:01:25;;;;;;;2.38;2.08;;;;;;;24.26;72.45;100604.78;7677149;23;20052;-89
2022/08/03 08:04:27;;;;;;;3.58;2.20;;;;;;;24.29;71.99;100602.53;7703427;23;20027;-89
2022/08/03 08:07:29;;;;;;;4.72;2.22;;;;;;;24.35;73.25;100597.41;7703278;23;20021;-89
2022/08/03 08:10:31;;;;;;;3.28;2.22;;;;;;;24.40;73.26;100598.44;7702918;23;20576;-89
2022/08/03 08:13:34;;;;;;;2.22;1.95;;;;;;;24.51;74.21;100599.63;7702672;23;20023;-90
2022/08/03 08:16:35;;;;;;;2.80;2.00;;;;;;;24.49;73.95;100591.09;7703247;23;20016;-90
2022/08/03 08:19:37;;;;;;;2.83;2.00;;;;;;;24.54;73.03;100595.75;7676289;23;20563;-89
2022/08/03 08:22:51;;;;;;;6.10;1.98;;;;;;;24.64;72.29;100596.09;7702817;23;20025;-89
2022/08/03 08:25:53;;;;;;;2.15;1.95;;;;;;;24.79;72.10;100601.09;7702617;23;20726;-89
2022/08/03 08:28:55;;;;;;;3.45;2.25;;;;;;;24.92;71.35;100601.84;7702989;23;20021;-89
2022/08/03 08:31:57;;;;;;;4.82;1.95;;;;;;;24.95;70.52;100602.44;7676752;23;20016;-89
2022/08/03 08:34:59;;;;;;;3.22;1.90;;;;;;;24.97;70.90;100598.56;7676036;23;20042;-90
2022/08/03 08:38:01;;;;;;;4.13;2.00;;;;;;;25.17;70.29;100602.91;7702906;23;20447;-89
2022/08/03 08:41:07;;;;;;;2.60;1.73;;;;;;;25.33;68.66;100603.19;7678272;23;20355;-89
2022/08/03 08:44:09;;;;;;;4.30;2.40;;;;;;;25.35;67.14;100606.44;7675634;23;20040;-89
2022/08/03 08:47:12;;;;;;;2.88;2.03;;;;;;;25.29;68.12;100602.00;7703321;23;20016;-89
2022/08/03 08:50:18;;;;;;;3.60;1.85;;;;;;;25.33;67.28;100607.69;7702691;23;20020;-89
2022/08/03 08:53:29;;;;;;;3.08;2.10;;;;;;;25.36;66.07;100599.28;7703380;23;20143;-90
2022/08/03 08:56:32;;;;;;;3.78;2.00;;;;;;;25.70;66.03;100605.09;7702487;23;20020;-89
2022/08/03 08:59:35;;;;;;;2.58;1.58;;;;;;;26.03;61.29;100612.72;7675630;23;20020;-89
2022/08/03 09:02:50;;;;;;;5.72;1.70;;;;;;;26.00;62.68;100606.03;7654147;23;20024;-89
2022/08/03 09:05:52;;;;;;;6.47;1.88;;;;;;;25.94;64.40;100609.59;7677012;23;20036;-89
2022/08/03 09:08:57;;;;;;;1.73;1.63;;;;;;;26.06;63.06;100608.81;7676931;23;20168;-89
2022/08/03 09:11:59;;;;;;;2.38;1.80;;;;;;;26.16;60.10;100606.47;7675222;23;20091;-89
2022/08/03 09:15:32;;;;;;;2.40;1.55;;;;;;;26.20;60.85;100602.34;7680226;23;20031;-89
2022/08/03 09:18:35;;;;;;;3.67;2.00;;;;;;;26.23;59.91;100588.63;7703563;23;20040;-89
2022/08/03 09:21:37;;;;;;;4.20;3.17;;;;;;;26.29;59.58;100601.00;7702267;23;20044;-88
2022/08/03 09:25:03;;;;;;;3.10;1.67;;;;;;;26.33;59.71;100588.09;7703128;23;20021;-89
2022/08/03 09:28:33;;;;;;;2.97;1.48;;;;;;;26.61;57.56;100591.03;7680213;23;20070;-89
2022/08/03 09:32:05;;;;;;;6.63;2.00;;;;;;;26.96;57.26;100592.97;7702617;23;20486;-89
2022/08/03 09:35:07;;;;;;;5.47;2.53;;;;;;;27.19;55.93;100589.56;7703007;23;20025;-89
2022/08/03 09:38:11;;;;;;;6.45;2.08;;;;;;;27.20;53.93;100590.38;7702229;23;20030;-89
2022/08/03 09:41:20;;;;;;;4.30;1.83;;;;;;;27.18;54.96;100587.09;7702404;23;20019;-90
2022/08/03 09:44:34;;;;;;;3.72;2.55;;;;;;;27.30;53.89;100592.44;7702048;23;20163;-89
2022/08/03 09:47:36;;;;;;;2.70;1.63;;;;;;;27.32;52.12;100596.50;7702479;23;20032;-89
2022/08/03 09:50:54;;;;;;;4.50;2.20;;;;;;;27.48;55.11;100592.38;7702633;23;20025;-89
2022/08/03 09:54:28;;;;;;;3.55;1.80;;;;;;;27.61;52.82;100586.78;7703386;23;20459;-89
2022/08/03 09:57:29;;;;;;;2.03;1.83;;;;;;;27.82;51.23;100587.25;7701221;23;20027;-90
2022/08/03 10:00:31;;;;;;;3.15;1.60;;;;;;;27.82;51.19;100579.28;7701642;23;20017;-89
2022/08/03 10:03:35;;;;;;;2.75;1.90;;;;;;;27.65;51.83;100577.31;7702106;23;20025;-89
2022/08/03 10:07:11;;;;;;;2.35;1.83;;;;;;;27.70;53.96;100568.63;7703021;23;20028;-89
2022/08/03 10:10:15;;;;;;;2.15;1.70;;;;;;;27.95;52.93;100578.19;7702113;23;20355;-90
2022/08/03 10:13:33;;;;;;;2.10;1.90;;;;;;;28.11;49.93;100574.81;7701747;23;20021;-90
2022/08/03 10:16:39;;;;;;;1.92;1.70;;;;;;;28.06;51.72;100578.19;7702998;23;20020;-90
2022/08/03 10:19:41;;;;;;;2.50;2.30;;;;;;;28.01;51.12;100575.41;7702884;23;20020;-89
2022/08/03 10:22:42;;;;;;;2.90;2.00;;;;;;;28.08;51.40;100576.09;7702864;23;20023;-90
2022/08/03 10:25:58;;;;;;;3.88;2.20;;;;;;;28.08;49.95;100570.78;7677146;23;20044;-89
2022/08/03 10:29:02;;;;;;;3.65;2.10;;;;;;;28.03;51.73;100565.34;7706068;23;20016;-90
2022/08/03 10:32:13;;;;;;;3.88;2.03;;;;;;;28.31;52.88;100561.88;7677563;23;20175;-90
2022/08/03 10:35:18;;;;;;;4.47;1.92;;;;;;;28.55;49.80;100565.28;7704066;23;20028;-89
2022/08/03 10:38:34;;;;;;;3.95;2.10;;;;;;;28.61;50.66;100562.72;7678386;23;20024;-89
2022/08/03 10:41:41;;;;;;;4.03;2.15;;;;;;;28.74;48.02;100560.53;7704215;23;20020;-90
2022/08/03 10:44:43;;;;;;;2.45;2.25;;;;;;;28.67;48.50;100554.59;7678397;23;20020;-90
2022/08/03 10:47:50;;;;;;;2.30;2.10;;;;;;;28.63;48.11;100550.78;7704185;23;20023;-89
2022/08/03 10:50:52;;;;;;;3.55;2.08;;;;;;;28.88;49.46;100555.72;7704037;23;20023;-89
2022/08/03 10:53:54;;;;;;;7.57;2.10;;;;;;;29.05;47.40;100539.72;7704131;23;20021;-87
2022/08/03 11:00:23;;;;;;;2.83;1.98;;;;;;;28.99;50.05;100543.34;7705605;23;20027;-88
2022/08/03 11:03:25;;;;;;;8.35;2.30;;;;;;;29.22;46.27;100547.75;7704374;23;20440;-88
2022/08/03 11:06:27;;;;;;;2.60;1.70;;;;;;;29.34;46.10;100543.13;7705338;23;20111;-88
2022/08/03 11:09:47;;;;;;;2.92;1.95;;;;;;;29.69;44.34;100544.69;7705430;23;20482;-86
2022/08/03 11:12:49;;;;;;;4.38;2.08;;;;;;;29.68;44.82;100548.38;7677825;23;20031;-89
2022/08/03 11:15:54;;;;;;;3.30;1.83;;;;;;;29.60;44.80;100541.59;7704094;23;20526;-88
2022/08/03 11:19:06;;;;;;;2.58;1.60;;;;;;;29.79;43.90;100550.13;7704474;23;20581;-89
2022/08/03 11:22:08;;;;;;;6.88;2.13;;;;;;;29.94;43.84;100543.38;7704095;23;20024;-89
2022/08/03 11:25:15;;;;;;;4.40;1.60;;;;;;;29.82;43.91;100541.63;7703458;23;20467;-90
2022/08/03 11:28:38;;;;;;;2.55;1.70;;;;;;;29.81;42.73;100541.88;7704065;23;20021;-88
2022/08/03 11:31:44;;;;;;;1.70;1.40;;;;;;;29.84;43.03;100534.19;7703865;23;20020;-87
2022/08/03 11:35:08;;;;;;;2.05;1.55;;;;;;;29.90;42.63;100534.25;7704223;23;20021;-89
2022/08/03 11:38:11;;;;;;;3.38;1.50;;;;;;;29.80;43.85;100530.38;7704034;23;20072;-89
2022/08/03 11:41:32;;;;;;;3.38;1.77;;;;;;;29.73;43.74;100536.97;7677695;23;20074;-88
2022/08/03 11:44:45;;;;;;;3.03;1.73;;;;;;;29.75;44.37;100533.00;7704470;23;20028;-88
2022/08/03 11:47:52;;;;;;;5.30;1.83;;;;;;;30.01;45.28;100538.63;7704210;23;20028;-88
2022/08/03 11:50:56;;;;;;;4.18;1.63;;;;;;;30.24;43.42;100526.88;7704592;23;20029;-87
2022/08/03 11:54:00;;;;;;;2.03;1.55;;;;;;;30.13;43.96;100522.47;7703751;23;20020;-88
2022/08/03 11:57:02;;;;;;;7.63;2.13;;;;;;;30.28;41.94;100533.34;7703033;23;20024;-89
2022/08/03 12:00:23;;;;;;;2.17;1.50;;;;;;;30.29;41.18;100521.63;7652060;23;20025;-89
2022/08/03 12:03:31;;;;;;;3.60;1.70;;;;;;;30.38;43.88;100528.09;7703271;23;20453;-89
2022/08/03 12:06:53;;;;;;;3.65;2.45;;;;;;;30.73;42.74;100534.00;7703506;23;20167;-90
2022/08/03 12:10:05;;;;;;;1.75;1.63;;;;;;;30.96;41.59;100527.53;7703609;23;20070;-89
2022/08/03 12:13:10;;;;;;;2.33;1.80;;;;;;;31.03;42.31;100523.59;7703228;23;20375;-90
2022/08/03 12:16:32;;;;;;;3.05;1.70;;;;;;;31.38;41.66;100519.50;7703673;23;20020;-90
2022/08/03 12:19:46;;;;;;;2.85;1.90;;;;;;;31.51;42.42;100512.91;7704058;23;20517;-90
2022/08/03 12:22:48;;;;;;;3.65;2.10;;;;;;;31.84;43.12;100511.69;7677393;23;20024;-89
2022/08/03 12:25:50;;;;;;;2.10;1.90;;;;;;;32.16;40.25;100516.06;7702740;23;20020;-90
2022/08/03 12:28:52;;;;;;;3.20;1.85;;;;;;;32.46;42.01;100503.78;7703480;23;20475;-89
2022/08/03 12:31:54;;;;;;;3.80;1.98;;;;;;;32.80;39.16;100501.38;7702035;23;20113;-90
2022/08/03 12:35:03;;;;;;;2.85;1.92;;;;;;;32.68;41.47;100508.91;7675709;23;20356;-89
2022/08/03 12:38:05;;;;;;;2.85;1.70;;;;;;;32.60;40.56;100507.56;7697557;23;20055;-90
2022/08/03 12:41:15;;;;;;;2.95;2.20;;;;;;;32.65;39.14;100499.53;7700469;23;20397;-90
2022/08/03 12:44:18;;;;;;;2.17;1.85;;;;;;;32.46;40.76;100503.78;7701261;23;20042;-90
2022/08/03 12:47:20;;;;;;;3.70;2.10;;;;;;;32.36;44.23;100499.22;7675406;23;20318;-89
2022/08/03 12:50:28;;;;;;;4.15;1.85;;;;;;;32.65;41.75;100494.16;7701453;23;20020;-90
2022/08/03 12:53:32;;;;;;;3.38;1.90;;;;;;;32.93;42.24;100491.97;7702437;23;20433;-90
2022/08/03 12:56:34;;;;;;;3.72;2.05;;;;;;;33.17;39.67;100500.28;7701828;23;20094;-91
2022/08/03 12:59:41;;;;;;;2.25;1.50;;;;;;;33.21;36.48;100494.06;7701420;23;20024;-92
2022/08/03 13:03:06;;;;;;;3.13;1.48;;;;;;;33.14;35.95;100498.91;7699856;23;20054;-90
2022/08/03 13:06:28;;;;;;;1.85;1.45;;;;;;;33.22;36.83;100501.06;7679118;23;20442;-90
2022/08/03 13:09:43;;;;;;;1.80;1.70;;;;;;;33.41;35.61;100495.06;7700992;23;20028;-90
2022/08/03 13:12:48;;;;;;;2.13;1.40;;;;;;;33.41;35.61;100501.25;7701767;23;20067;-91
2022/08/03 13:15:51;;;;;;;3.42;1.63;;;;;;;33.41;35.47;100495.06;7673550;23;20035;-91
2022/08/03 13:18:53;;;;;;;2.38;1.42;;;;;;;33.43;35.55;100499.09;7673723;23;20194;-90
2022/08/03 13:21:55;;;;;;;3.90;1.60;;;;;;;33.38;34.80;100495.63;7702748;23;20502;-90
2022/08/03 13:25:05;;;;;;;2.05;1.38;;;;;;;33.46;35.79;100495.84;7701974;23;20131;-90
2022/08/03 13:28:07;;;;;;;2.20;1.63;;;;;;;33.56;36.86;100491.56;7701754;23;20020;-90
2022/08/03 13:31:14;;;;;;;5.30;1.70;;;;;;;33.77;33.99;100489.59;7674295;23;20029;-90
2022/08/03 13:34:18;;;;;;;1.70;1.40;;;;;;;33.96;34.07;100492.41;7701696;23;20027;-91
2022/08/03 13:37:25;;;;;;;3.22;1.55;;;;;;;34.02;35.97;100488.63;7701604;23;20016;-90
2022/08/03 13:40:30;;;;;;;2.20;1.70;;;;;;;34.12;35.02;100482.41;7700781;23;20016;-90
2022/08/03 13:43:37;;;;;;;1.50;1.40;;;;;;;34.12;34.28;100479.72;7675320;23;20031;-90
2022/08/03 13:46:41;;;;;;;2.30;1.88;;;;;;;34.12;34.23;100475.16;7700850;23;20095;-90
2022/08/03 13:49:42;;;;;;;2.30;1.40;;;;;;;34.16;35.60;100472.69;7702014;23;20020;-90
2022/08/03 13:53:03;;;;;;;3.90;1.90;;;;;;;34.44;33.67;100466.56;7699862;23;20036;-90
2022/08/03 13:56:06;;;;;;;2.90;1.55;;;;;;;34.55;35.32;100453.03;7674392;23;20031;-90
2022/08/03 13:59:09;;;;;;;2.97;1.65;;;;;;;34.45;33.84;100460.09;7701896;23;20017;-90
2022/08/03 14:02:11;;;;;;;2.28;1.65;;;;;;;34.38;33.79;100454.22;7699158;23;20526;-91
2022/08/03 14:05:13;;;;;;;1.83;1.60;;;;;;;34.37;33.29;100452.63;7698993;23;20068;-90
2022/08/03 14:08:15;;;;;;;2.95;1.85;;;;;;;34.41;33.98;100452.88;7702032;23;20514;-91
2022/08/03 14:11:17;;;;;;;3.13;1.92;;;;;;;34.64;35.17;100446.78;7701929;23;20027;-90
2022/08/03 14:14:19;;;;;;;2.20;1.52;;;;;;;34.86;33.27;100446.28;7701365;23;20020;-90
2022/08/03 14:17:21;;;;;;;3.05;1.60;;;;;;;35.13;32.87;100443.03;7673384;23;20021;-90
2022/08/03 14:20:28;;;;;;;3.47;1.50;;;;;;;35.25;32.69;100449.88;7701229;23;20025;-90
2022/08/03 14:23:48;;;;;;;2.75;2.00;;;;;;;35.11;32.51;100434.44;7698991;23;20147;-90
2022/08/03 14:26:50;;;;;;;2.03;1.73;;;;;;;35.26;33.03;100438.84;7698978;23;20031;-91
2022/08/03 14:29:52;;;;;;;1.92;1.67;;;;;;;35.13;32.71;100436.84;7699506;23;20100;-93
2022/08/03 14:32:53;;;;;;;1.90;1.70;;;;;;;34.94;34.16;100440.28;7700721;23;20017;-92
2022/08/03 14:36:01;;;;;;;3.97;1.63;;;;;;;34.56;33.94;100436.63;7702494;23;20027;-92